Terminal Aerodrome Forecast
Issued by NWS Wilmington, NC

Home | Current Version | Previous Version | Text Only | Print | Product List | Glossary On
Versions: 1 2 3 4 5 6 7 8 9 10 11 12 13 14
585
FTUS42 KILM 231724
TAFILM
TAF
KILM 231724Z 2318/2418 06008KT P6SM SHRA OVC010
      TEMPO 2318/2321 3SM SHRA OVC008
     FM232300 08009KT P6SM OVC008
      TEMPO 2402/2403 2SM SHRA OVC003
     FM240300 08008KT 3SM SHRA OVC003
     FM241400 13010G17KT 6SM SHRA BR OVC007=

USA.gov is the U.S. government's official web portal to all federal, state and local government web resources and services.